createdAt,value
2018-07-13T00:00:56.256Z,20.13
2018-07-13T00:03:24.704Z,20.50
2018-07-13T00:05:53.090Z,19.70
2018-07-13T00:08:21.535Z,19.67
2018-07-13T00:10:49.994Z,20.10
2018-07-13T00:13:18.374Z,20.40
2018-07-13T00:15:58.003Z,18.83
2018-07-13T00:18:26.396Z,20.37
2018-07-13T00:20:54.870Z,20.23
2018-07-13T00:23:23.265Z,20.33
2018-07-13T00:25:52.029Z,21.20
2018-07-13T00:28:20.480Z,19.53
2018-07-13T00:30:48.894Z,20.60
2018-07-13T00:33:17.465Z,23.33
2018-07-13T00:35:45.928Z,20.57
2018-07-13T00:38:14.344Z,22.57
2018-07-13T00:40:42.805Z,20.93
2018-07-13T00:43:11.214Z,20.43
2018-07-13T00:45:39.869Z,21.47
2018-07-13T00:48:08.253Z,21.73
2018-07-13T00:50:36.707Z,20.40
2018-07-13T00:53:05.121Z,20.87
2018-07-13T00:55:33.275Z,20.43
2018-07-13T00:58:01.726Z,19.33
2018-07-13T01:00:32.152Z,21.33
2018-07-13T01:03:01.934Z,19.80
2018-07-13T01:05:30.627Z,20.40
2018-07-13T01:07:59.097Z,20.90
2018-07-13T01:10:27.661Z,22.23
2018-07-13T01:12:56.163Z,21.67
2018-07-13T01:15:24.607Z,22.37
2018-07-13T01:17:53.027Z,22.67
2018-07-13T01:20:21.473Z,22.87
2018-07-13T01:22:49.984Z,23.30
2018-07-13T01:25:18.411Z,22.87
2018-07-13T01:27:46.867Z,20.80
2018-07-13T01:30:15.245Z,20.60
2018-07-13T01:32:43.653Z,21.13
2018-07-13T01:35:12.067Z,21.13
2018-07-13T01:37:40.486Z,21.17
2018-07-13T01:40:08.943Z,20.70
2018-07-13T01:42:37.348Z,20.77
2018-07-13T01:45:05.838Z,20.60
2018-07-13T01:47:34.502Z,22.40
2018-07-13T01:50:03.122Z,22.13
2018-07-13T01:52:31.575Z,21.17
2018-07-13T01:55:00.027Z,22.70
2018-07-13T01:57:28.449Z,23.67
2018-07-13T01:59:56.914Z,23.47
2018-07-13T02:02:25.351Z,24.33
2018-07-13T02:04:53.499Z,22.10
2018-07-13T02:07:22.057Z,22.47
2018-07-13T02:09:52.735Z,21.47
2018-07-13T02:12:21.292Z,20.93
2018-07-13T02:14:50.243Z,23.53
2018-07-13T02:17:18.661Z,22.10
2018-07-13T02:19:47.485Z,21.50
2018-07-13T02:22:15.910Z,21.63
2018-07-13T02:24:45.139Z,22.20
2018-07-13T02:27:13.841Z,21.97
2018-07-13T02:29:42.409Z,21.83
2018-07-13T02:32:10.947Z,22.03
2018-07-13T02:34:39.387Z,23.03
2018-07-13T02:37:07.911Z,22.77
2018-07-13T02:39:36.491Z,23.93
2018-07-13T02:42:04.929Z,23.47
2018-07-13T02:44:33.382Z,23.97
2018-07-13T02:47:01.802Z,22.50
2018-07-13T02:49:30.346Z,22.00
2018-07-13T02:51:58.919Z,22.27
2018-07-13T02:54:27.421Z,24.73
2018-07-13T02:56:55.837Z,22.07
2018-07-13T02:59:24.405Z,23.37
2018-07-13T03:01:52.543Z,22.67
2018-07-13T03:04:21.151Z,22.67
2018-07-13T03:06:49.657Z,21.50
2018-07-13T03:09:18.264Z,21.93
2018-07-13T03:11:46.720Z,22.17
2018-07-13T03:14:15.175Z,22.67
2018-07-13T03:16:43.624Z,21.87
2018-07-13T03:19:12.065Z,23.73
2018-07-13T03:21:40.535Z,24.30
2018-07-13T03:24:09.073Z,24.97
2018-07-13T03:26:37.565Z,24.40
2018-07-13T03:29:05.999Z,25.20
2018-07-13T03:31:34.485Z,24.43
2018-07-13T03:34:02.904Z,26.87
2018-07-13T03:36:31.352Z,28.47
2018-07-13T03:38:59.883Z,25.87
2018-07-13T03:41:28.430Z,26.53
2018-07-13T03:43:56.900Z,25.47
2018-07-13T03:46:25.373Z,23.83
2018-07-13T03:48:53.796Z,26.00
2018-07-13T03:51:22.294Z,25.87
2018-07-13T03:53:50.780Z,23.90
2018-07-13T03:56:19.206Z,22.70
2018-07-13T03:58:47.781Z,23.00
2018-07-13T04:01:16.264Z,23.93
2018-07-13T04:03:44.720Z,22.90
2018-07-13T04:06:13.156Z,23.23
2018-07-13T04:08:41.568Z,22.83
2018-07-13T04:11:09.986Z,23.30
2018-07-13T04:13:38.451Z,22.60
2018-07-13T04:16:07.074Z,22.47
2018-07-13T04:18:35.586Z,22.93
2018-07-13T04:21:04.034Z,23.73
2018-07-13T04:23:32.553Z,24.30
2018-07-13T04:26:01.021Z,22.87
2018-07-13T04:28:29.581Z,22.30
2018-07-13T04:30:58.065Z,22.33
2018-07-13T04:33:26.540Z,21.97
2018-07-13T04:35:55.150Z,23.87
2018-07-13T04:38:23.589Z,20.93
2018-07-13T04:40:52.120Z,22.40
2018-07-13T04:43:20.523Z,21.93
2018-07-13T04:45:49.873Z,21.57
2018-07-13T04:48:18.393Z,21.27
2018-07-13T04:50:46.955Z,21.77
2018-07-13T04:53:15.858Z,21.97
2018-07-13T04:55:44.362Z,21.70
2018-07-13T04:58:13.354Z,23.70
2018-07-13T05:00:41.940Z,23.50
2018-07-13T05:03:10.637Z,21.10
2018-07-13T05:05:39.289Z,23.30
2018-07-13T05:08:07.793Z,23.07
2018-07-13T05:10:36.287Z,20.90
2018-07-13T05:13:04.911Z,22.27
2018-07-13T05:15:33.635Z,20.53
2018-07-13T05:18:02.258Z,20.20
2018-07-13T05:20:30.824Z,20.43
2018-07-13T05:22:59.355Z,20.67
2018-07-13T05:25:27.936Z,19.17
2018-07-13T05:27:56.904Z,19.20
2018-07-13T05:30:25.582Z,18.73
2018-07-13T05:32:54.256Z,18.77
2018-07-13T05:35:22.923Z,22.07
2018-07-13T05:37:51.595Z,16.77
2018-07-13T05:40:20.358Z,17.60
2018-07-13T05:42:49.090Z,16.87
2018-07-13T05:45:17.959Z,18.03
2018-07-13T05:47:46.704Z,18.07
2018-07-13T05:50:15.506Z,18.07
2018-07-13T05:52:45.049Z,16.57
2018-07-13T05:55:14.302Z,17.83
2018-07-13T05:57:43.014Z,17.67
2018-07-13T06:00:11.774Z,17.20
2018-07-13T06:02:40.404Z,15.60
2018-07-13T06:05:09.210Z,15.87
2018-07-13T06:07:39.806Z,16.40
2018-07-13T06:10:08.523Z,16.17
2018-07-13T06:12:37.295Z,15.20
2018-07-13T06:15:06.508Z,15.73
2018-07-13T06:17:35.303Z,15.70
2018-07-13T06:20:04.055Z,15.33
2018-07-13T06:22:33.061Z,15.73
2018-07-13T06:25:01.600Z,16.27
2018-07-13T06:27:30.195Z,13.90
2018-07-13T06:29:58.751Z,14.43
2018-07-13T06:32:28.145Z,14.97
2018-07-13T06:34:56.829Z,13.53
2018-07-13T06:37:25.384Z,14.28
2018-07-13T06:39:54.103Z,14.38
2018-07-13T06:42:22.992Z,13.35
2018-07-13T06:44:51.563Z,14.05
2018-07-13T06:47:20.158Z,13.13
2018-07-13T06:49:48.846Z,12.88
2018-07-13T06:52:17.535Z,12.98
2018-07-13T06:54:46.430Z,13.48
2018-07-13T06:59:27.265Z,13.43
2018-07-13T07:01:55.915Z,12.55
2018-07-13T07:04:28.554Z,13.00
2018-07-13T07:06:57.738Z,13.00
2018-07-13T07:09:27.489Z,12.43
2018-07-13T07:12:12.201Z,12.05
2018-07-13T07:14:40.793Z,11.28
2018-07-13T07:17:09.345Z,11.35
2018-07-13T07:19:37.860Z,10.63
2018-07-13T07:22:06.737Z,10.23
2018-07-13T07:24:36.046Z,10.43
2018-07-13T07:27:05.423Z,11.12
2018-07-13T07:29:33.990Z,10.48
2018-07-13T07:32:02.531Z,10.13
2018-07-13T07:34:31.230Z,9.90
2018-07-13T07:36:59.714Z,10.45
2018-07-13T07:39:28.305Z,11.05
2018-07-13T07:41:58.592Z,10.23
2018-07-13T07:44:28.014Z,10.10
2018-07-13T07:46:56.872Z,10.30
2018-07-13T07:49:25.483Z,10.25
2018-07-13T07:51:54.100Z,10.90
2018-07-13T07:54:22.590Z,11.15
2018-07-13T07:56:51.307Z,11.53
2018-07-13T07:59:20.367Z,10.65
2018-07-13T08:01:49.254Z,15.72
2018-07-13T08:04:17.901Z,10.72
2018-07-13T08:06:46.712Z,11.05
2018-07-13T08:09:15.492Z,9.40
2018-07-13T08:11:45.242Z,11.05
2018-07-13T08:14:14.057Z,9.15
2018-07-13T08:16:42.151Z,11.53
2018-07-13T08:19:10.917Z,11.35
2018-07-13T08:21:43.136Z,9.95
2018-07-13T08:24:13.648Z,9.18
2018-07-13T08:26:42.313Z,11.73
2018-07-13T08:29:12.615Z,10.45
2018-07-13T08:31:41.223Z,11.30
2018-07-13T08:34:09.728Z,11.97
2018-07-13T08:36:38.591Z,12.65
2018-07-13T08:39:08.347Z,8.50
2018-07-13T08:41:36.885Z,8.70
2018-07-13T08:44:05.553Z,8.90
2018-07-13T08:46:34.007Z,8.30
2018-07-13T08:49:02.684Z,7.90
2018-07-13T08:51:31.266Z,9.18
2018-07-13T08:53:59.883Z,9.13
2018-07-13T08:56:28.522Z,8.05
2018-07-13T08:58:57.162Z,8.38
2018-07-13T09:01:25.946Z,9.70
2018-07-13T09:03:54.739Z,9.80
2018-07-13T09:06:23.403Z,9.05
2018-07-13T09:08:52.086Z,7.95
2018-07-13T09:11:21.697Z,8.75
2018-07-13T09:13:50.615Z,7.83
2018-07-13T09:16:20.095Z,8.48
2018-07-13T09:18:48.944Z,8.30
2018-07-13T09:21:17.702Z,9.03
2018-07-13T09:23:46.205Z,9.03
2018-07-13T09:26:14.775Z,8.88
2018-07-13T09:28:43.251Z,7.47
2018-07-13T09:31:11.808Z,7.55
2018-07-13T09:33:40.569Z,6.80
2018-07-13T09:36:09.531Z,6.87
2018-07-13T09:38:38.395Z,6.50
2018-07-13T09:41:07.237Z,7.22
2018-07-13T09:43:36.757Z,6.35
2018-07-13T09:46:07.883Z,5.62
2018-07-13T09:48:37.809Z,10.13
2018-07-13T09:51:06.638Z,6.40
2018-07-13T09:53:35.988Z,6.70
2018-07-13T09:56:05.337Z,6.80
2018-07-13T09:58:37.863Z,7.47
2018-07-13T10:01:12.219Z,6.62
2018-07-13T10:03:40.945Z,7.62
2018-07-13T10:06:11.293Z,6.45
2018-07-13T10:08:39.928Z,6.33
2018-07-13T10:11:08.607Z,6.22
2018-07-13T10:13:37.419Z,6.65
2018-07-13T10:16:05.962Z,8.53
2018-07-13T10:18:34.528Z,7.12
2018-07-13T10:21:04.024Z,6.47
2018-07-13T10:23:33.204Z,6.35
2018-07-13T10:26:06.107Z,6.00
2018-07-13T10:28:36.724Z,7.42
2018-07-13T10:31:06.344Z,6.20
2018-07-13T10:33:36.092Z,6.55
2018-07-13T10:36:05.652Z,8.30
2018-07-13T10:38:34.312Z,6.92
2018-07-13T10:41:02.914Z,6.92
2018-07-13T10:43:31.811Z,6.50
2018-07-13T10:46:00.447Z,6.22
2018-07-13T10:48:29.158Z,8.80
2018-07-13T10:50:57.875Z,7.33
2018-07-13T10:53:26.572Z,6.30
2018-07-13T10:55:55.193Z,6.70
2018-07-13T10:58:24.421Z,7.22
2018-07-13T11:00:53.534Z,7.25
2018-07-13T11:03:22.426Z,6.05
2018-07-13T11:05:51.751Z,5.95
2018-07-13T11:08:20.854Z,7.47
2018-07-13T11:10:49.914Z,9.33
2018-07-13T11:13:18.880Z,6.65
2018-07-13T11:15:47.698Z,6.20
2018-07-13T11:18:16.430Z,6.67
2018-07-13T11:20:45.380Z,6.58
2018-07-13T11:23:14.388Z,5.60
2018-07-13T11:25:43.224Z,5.83
2018-07-13T11:28:12.006Z,6.20
2018-07-13T11:30:40.802Z,5.75
2018-07-13T11:33:09.874Z,7.10
2018-07-13T11:35:38.685Z,7.58
2018-07-13T11:38:07.928Z,6.90
2018-07-13T11:40:36.606Z,7.65
2018-07-13T11:43:05.201Z,7.30
2018-07-13T11:45:33.928Z,7.08
2018-07-13T11:48:02.759Z,7.55
2018-07-13T11:50:31.788Z,7.40
2018-07-13T11:53:00.730Z,8.63
2018-07-13T11:55:29.615Z,7.35
2018-07-13T11:57:58.307Z,7.25
2018-07-13T12:00:27.161Z,7.28
2018-07-13T12:02:55.831Z,7.87
2018-07-13T12:05:24.618Z,6.65
2018-07-13T12:07:54.245Z,7.50
2018-07-13T12:10:23.109Z,7.40
2018-07-13T12:12:56.642Z,7.00
2018-07-13T12:15:25.605Z,7.37
2018-07-13T12:17:54.857Z,7.05
2018-07-13T12:20:23.518Z,6.22
2018-07-13T12:22:52.519Z,6.50
2018-07-13T12:25:22.129Z,6.53
2018-07-13T12:27:51.261Z,6.62
2018-07-13T12:30:19.965Z,7.35
2018-07-13T12:32:48.799Z,6.53
2018-07-13T12:35:17.463Z,6.75
2018-07-13T12:37:46.059Z,7.47
2018-07-13T12:40:14.704Z,6.55
2018-07-13T12:42:43.495Z,6.80
2018-07-13T12:45:12.498Z,6.25
2018-07-13T12:47:41.166Z,5.85
2018-07-13T12:50:09.772Z,6.45
2018-07-13T12:52:38.463Z,6.62
2018-07-13T12:55:07.293Z,6.20
2018-07-13T12:57:35.978Z,6.92
2018-07-13T13:00:04.304Z,6.58
2018-07-13T13:02:39.656Z,6.33
2018-07-13T13:05:09.424Z,12.55
2018-07-13T13:07:38.184Z,6.85
2018-07-13T13:10:06.462Z,6.92
2018-07-13T13:12:35.286Z,6.70
2018-07-13T13:15:04.037Z,6.47
2018-07-13T13:17:32.808Z,6.08
2018-07-13T13:20:01.451Z,6.78
2018-07-13T13:22:30.106Z,6.33
2018-07-13T13:25:01.648Z,6.30
2018-07-13T13:27:30.342Z,6.70
2018-07-13T13:29:59.095Z,6.28
2018-07-13T13:32:27.703Z,7.03
2018-07-13T13:34:56.257Z,6.15
2018-07-13T13:37:24.907Z,6.75
2018-07-13T13:39:53.830Z,6.53
2018-07-13T13:42:22.572Z,6.25
2018-07-13T13:44:51.556Z,6.33
2018-07-13T13:47:20.400Z,6.40
2018-07-13T13:49:49.492Z,7.03
2018-07-13T13:52:18.074Z,6.50
2018-07-13T13:54:46.764Z,7.05
2018-07-13T13:57:15.760Z,5.92
2018-07-13T13:59:45.243Z,6.83
2018-07-13T14:02:16.656Z,6.37
2018-07-13T14:04:49.292Z,8.50
2018-07-13T14:07:18.352Z,6.25
2018-07-13T14:09:47.032Z,6.90
2018-07-13T14:12:15.742Z,6.50
2018-07-13T14:14:44.228Z,6.10
2018-07-13T14:17:12.805Z,6.47
2018-07-13T14:19:42.257Z,6.70
2018-07-13T14:22:11.044Z,6.17
2018-07-13T14:24:39.640Z,6.35
2018-07-13T14:27:08.353Z,5.50
2018-07-13T14:29:36.845Z,6.67
2018-07-13T14:32:05.950Z,6.53
2018-07-13T14:34:34.827Z,7.20
2018-07-13T14:37:09.939Z,6.30
2018-07-13T14:39:44.052Z,6.58
2018-07-13T14:42:12.594Z,6.15
2018-07-13T14:44:41.114Z,5.58
2018-07-13T14:47:09.968Z,6.65
2018-07-13T14:49:38.712Z,6.12
2018-07-13T14:52:08.699Z,6.08
2018-07-13T14:54:38.219Z,5.83
2018-07-13T14:57:07.813Z,6.08
2018-07-13T14:59:36.456Z,6.40
2018-07-13T15:02:05.212Z,6.55
2018-07-13T15:04:33.817Z,6.72
2018-07-13T15:07:02.351Z,5.87
2018-07-13T15:09:30.888Z,6.30
2018-07-13T15:11:59.404Z,6.37
2018-07-13T15:14:28.041Z,6.83
2018-07-13T15:16:56.524Z,7.35
2018-07-13T15:19:25.151Z,7.50
2018-07-13T15:21:53.686Z,6.58
2018-07-13T15:24:22.308Z,6.83
2018-07-13T15:26:51.299Z,7.92
2018-07-13T15:29:19.942Z,7.17
2018-07-13T15:31:48.575Z,5.72
2018-07-13T15:34:18.802Z,5.80
2018-07-13T15:36:47.857Z,5.67
2018-07-13T15:39:17.894Z,5.62
2018-07-13T15:41:46.574Z,6.95
2018-07-13T15:44:15.295Z,5.20
2018-07-13T15:46:44.301Z,4.97
2018-07-13T15:49:16.324Z,5.97
2018-07-13T15:51:44.967Z,4.42
2018-07-13T15:54:13.516Z,3.98
2018-07-13T15:56:42.315Z,6.55
2018-07-13T15:59:11.219Z,4.30
2018-07-13T16:01:39.853Z,4.28
2018-07-13T16:04:09.662Z,6.17
2018-07-13T16:06:38.468Z,6.22
2018-07-13T16:09:07.072Z,4.37
2018-07-13T16:11:35.843Z,4.70
2018-07-13T16:14:04.410Z,5.08
2018-07-13T16:16:33.113Z,4.53
2018-07-13T16:19:01.751Z,4.42
2018-07-13T16:21:30.483Z,4.60
2018-07-13T16:23:59.174Z,4.97
2018-07-13T16:26:28.348Z,5.30
2018-07-13T16:28:58.327Z,5.53
2018-07-13T16:31:26.913Z,6.83
2018-07-13T16:33:56.035Z,6.15
2018-07-13T16:36:24.653Z,4.50
2018-07-13T16:38:53.339Z,5.30
2018-07-13T16:41:22.042Z,6.28
2018-07-13T16:43:50.728Z,8.85
2018-07-13T16:46:19.467Z,5.05
2018-07-13T16:48:48.049Z,5.22
2018-07-13T16:51:16.630Z,4.53
2018-07-13T16:53:45.211Z,4.00
2018-07-13T16:56:14.535Z,4.40
2018-07-13T16:58:43.337Z,4.12
2018-07-13T17:01:12.000Z,3.90
2018-07-13T17:03:48.304Z,4.20
2018-07-13T17:06:16.881Z,5.10
2018-07-13T17:08:45.687Z,6.25
2018-07-13T17:11:14.446Z,4.62
2018-07-13T17:13:43.049Z,4.40
2018-07-13T17:16:11.593Z,4.67
2018-07-13T17:18:40.142Z,4.10
2018-07-13T17:21:08.694Z,4.17
2018-07-13T17:23:37.415Z,4.12
2018-07-13T17:26:06.955Z,3.77
2018-07-13T17:28:35.534Z,4.25
2018-07-13T17:31:04.737Z,4.53
2018-07-13T17:33:33.381Z,4.47
2018-07-13T17:36:01.914Z,4.22
2018-07-13T17:38:30.700Z,4.10
2018-07-13T17:41:00.600Z,4.58
2018-07-13T17:43:29.336Z,4.78
2018-07-13T17:45:57.980Z,4.40
2018-07-13T17:48:31.568Z,4.65
2018-07-13T17:51:00.150Z,9.20
2018-07-13T17:53:28.738Z,8.90
2018-07-13T17:55:57.314Z,7.10
2018-07-13T17:58:26.004Z,6.40
2018-07-13T18:00:55.279Z,4.75
2018-07-13T18:03:24.249Z,5.08
2018-07-13T18:11:10.756Z,6.72
2018-07-13T18:13:44.186Z,6.65
2018-07-13T18:16:16.664Z,4.90
2018-07-13T18:18:46.587Z,4.67
2018-07-13T18:45:38.436Z,5.15
2018-07-13T18:48:06.591Z,6.25
2018-07-13T18:50:35.194Z,7.00
2018-07-13T18:53:03.703Z,5.85
2018-07-13T18:55:32.224Z,7.67
2018-07-13T18:58:00.648Z,4.62
2018-07-13T19:00:29.377Z,5.00
2018-07-13T19:02:57.907Z,5.12
2018-07-13T19:05:26.406Z,4.60
2018-07-13T19:07:55.040Z,4.03
2018-07-13T19:10:23.577Z,5.35
2018-07-13T19:12:52.157Z,5.00
2018-07-13T19:15:20.692Z,9.28
2018-07-13T19:17:49.192Z,5.50
2018-07-13T19:20:17.674Z,4.37
2018-07-13T19:22:46.367Z,6.37
2018-07-13T19:25:14.714Z,6.37
2018-07-13T19:27:43.236Z,5.40
2018-07-13T19:30:11.644Z,5.55
2018-07-13T19:32:40.233Z,4.30
2018-07-13T19:35:08.786Z,4.53
2018-07-13T19:37:37.488Z,5.47
2018-07-13T19:40:05.972Z,5.83
2018-07-13T19:42:34.446Z,5.50
2018-07-13T19:45:04.118Z,4.22
2018-07-13T19:47:32.650Z,4.55
2018-07-13T19:50:01.120Z,4.40
2018-07-13T19:52:29.716Z,4.50
2018-07-13T19:54:58.609Z,4.00
2018-07-13T19:57:27.208Z,5.15
2018-07-13T19:59:55.782Z,4.85
2018-07-13T20:05:27.793Z,5.22
2018-07-13T20:07:56.483Z,4.30
2018-07-13T20:10:25.092Z,4.17
2018-07-13T20:12:53.850Z,4.33
2018-07-13T20:15:22.024Z,4.62
2018-07-13T20:17:50.553Z,4.20
2018-07-13T20:20:19.129Z,4.50
2018-07-13T20:22:47.670Z,5.53
2018-07-13T20:25:16.211Z,4.92
2018-07-13T20:27:44.651Z,5.08
2018-07-13T20:30:13.182Z,4.80
2018-07-13T20:32:42.117Z,4.87
2018-07-13T20:35:10.799Z,4.87
2018-07-13T20:37:39.457Z,6.03
2018-07-13T20:40:08.034Z,5.08
2018-07-13T20:42:36.821Z,5.40
2018-07-13T20:45:05.390Z,6.12
2018-07-13T20:47:34.013Z,5.10
2018-07-13T20:50:02.626Z,5.42
2018-07-13T20:52:31.208Z,5.47
2018-07-13T20:54:59.715Z,6.07
2018-07-13T20:57:28.322Z,15.17
2018-07-13T20:59:56.867Z,9.70
2018-07-13T21:02:25.501Z,5.90
2018-07-13T21:04:54.056Z,5.70
2018-07-13T21:07:22.661Z,5.37
2018-07-13T21:09:51.204Z,5.20
2018-07-13T21:12:19.925Z,6.10
2018-07-13T21:14:48.107Z,5.77
2018-07-13T21:17:16.634Z,5.87
2018-07-13T21:19:45.259Z,4.90
2018-07-13T21:22:13.803Z,5.93
2018-07-13T21:24:42.437Z,5.33
2018-07-13T21:27:11.455Z,6.73
2018-07-13T21:29:39.996Z,8.83
2018-07-13T21:32:08.589Z,7.80
2018-07-13T21:34:37.055Z,7.13
2018-07-13T21:37:05.612Z,7.20
2018-07-13T21:39:34.103Z,7.23
2018-07-13T21:42:02.732Z,6.70
2018-07-13T21:44:31.237Z,7.20
2018-07-13T21:46:59.777Z,7.13
2018-07-13T21:49:28.341Z,6.43
2018-07-13T21:51:56.836Z,7.00
2018-07-13T21:54:25.383Z,7.23
2018-07-13T21:56:53.909Z,7.70
2018-07-13T21:59:22.527Z,9.00
2018-07-13T22:01:51.121Z,9.73
2018-07-13T22:04:19.514Z,6.37
2018-07-13T22:06:48.025Z,7.07
2018-07-13T22:09:16.844Z,10.07
2018-07-13T22:11:45.522Z,10.93
2018-07-13T22:14:14.056Z,12.83
2018-07-13T22:16:42.671Z,16.83
2018-07-13T22:19:11.213Z,15.40
2018-07-13T22:21:40.392Z,15.00
2018-07-13T22:24:09.211Z,19.70
2018-07-13T22:26:37.755Z,8.60
2018-07-13T22:29:06.314Z,7.90
2018-07-13T22:31:34.897Z,8.40
2018-07-13T22:34:03.419Z,7.97
2018-07-13T22:36:31.953Z,7.33
2018-07-13T22:39:00.539Z,6.87
2018-07-13T22:41:29.340Z,6.90
2018-07-13T22:43:57.864Z,7.23
2018-07-13T22:46:26.364Z,7.67
2018-07-13T22:48:54.900Z,7.77
2018-07-13T22:51:23.465Z,7.30
2018-07-13T22:53:51.948Z,8.07
2018-07-13T22:56:20.471Z,7.17
2018-07-13T22:58:49.123Z,6.30
2018-07-13T23:01:17.778Z,6.50
2018-07-13T23:03:46.251Z,6.13
2018-07-13T23:06:14.828Z,6.87
2018-07-13T23:08:43.293Z,7.27
2018-07-13T23:11:11.858Z,6.80
2018-07-13T23:13:40.354Z,6.60
2018-07-13T23:16:08.840Z,6.73
2018-07-13T23:18:37.296Z,6.57
2018-07-13T23:21:05.860Z,6.70
2018-07-13T23:23:34.474Z,7.23
2018-07-13T23:26:02.749Z,7.30
2018-07-13T23:28:31.355Z,7.90
2018-07-13T23:30:59.929Z,7.40
2018-07-13T23:33:28.491Z,6.80
2018-07-13T23:35:57.024Z,6.87
2018-07-13T23:38:25.780Z,6.70
2018-07-13T23:40:54.399Z,6.60
2018-07-13T23:43:22.989Z,7.40
2018-07-13T23:45:51.492Z,6.50
2018-07-13T23:48:20.106Z,7.00
2018-07-13T23:50:48.685Z,7.20
2018-07-13T23:53:16.921Z,7.20
2018-07-13T23:55:45.541Z,6.93
2018-07-13T23:58:14.141Z,7.73
